Time;durP1;ratioP1;P1;durP2;ratioP2;P2;SDS_P1;SDS_P2;PMS_P1;PMS_P2;Temp;Humidity;BMP_temperature;BMP_pressure;BME280_temperature;BME280_humidity;BME280_pressure;Samples;Min_cycle;Max_cycle;Signal;HPM_P1;HPM_P2
2023/11/19 00:00:11;;;;;;;7.53;3.90;;;;;;;6.26;100.00;97290.81;5041783;28;20451;-81
2023/11/19 00:02:37;;;;;;;6.68;3.45;;;;;;;6.30;100.00;97281.47;5041789;28;20495;-81
2023/11/19 00:05:08;;;;;;;7.28;3.85;;;;;;;6.31;100.00;97272.56;5042167;28;20395;-80
2023/11/19 00:07:35;;;;;;;6.78;4.10;;;;;;;6.37;100.00;97260.31;5039722;28;20462;-81
2023/11/19 00:10:10;;;;;;;5.70;3.20;;;;;;;6.41;100.00;97258.81;5042558;28;20411;-81
2023/11/19 00:12:37;;;;;;;6.97;3.25;;;;;;;6.42;100.00;97255.97;5046144;28;20415;-81
2023/11/19 00:15:03;;;;;;;5.63;3.20;;;;;;;6.45;100.00;97258.16;5057764;28;20395;-83
2023/11/19 00:17:30;;;;;;;6.40;3.45;;;;;;;6.52;100.00;97245.69;5058562;28;20406;-82
2023/11/19 00:19:56;;;;;;;9.10;3.28;;;;;;;6.54;100.00;97254.16;5048129;28;20453;-81
2023/11/19 00:22:25;;;;;;;5.40;3.03;;;;;;;6.57;100.00;97234.50;5045231;28;20395;-80
2023/11/19 00:24:51;;;;;;;5.38;3.00;;;;;;;6.60;100.00;97241.94;5043643;28;20792;-79
2023/11/19 00:27:18;;;;;;;4.80;2.75;;;;;;;6.60;100.00;97232.22;5047302;28;20471;-79
2023/11/19 00:29:44;;;;;;;5.00;3.17;;;;;;;6.67;100.00;97242.63;5042322;28;20843;-80
2023/11/19 00:32:11;;;;;;;5.50;2.43;;;;;;;6.71;100.00;97251.63;5041239;28;20563;-80
2023/11/19 00:34:37;;;;;;;4.50;2.60;;;;;;;6.73;100.00;97238.25;5040961;28;20399;-79
2023/11/19 00:37:03;;;;;;;6.07;2.90;;;;;;;6.77;100.00;97228.88;5040561;28;20477;-79
2023/11/19 00:39:31;;;;;;;6.13;2.80;;;;;;;6.79;100.00;97230.25;5042461;28;20419;-81
2023/11/19 00:41:57;;;;;;;6.37;2.90;;;;;;;6.82;100.00;97219.28;5048007;28;20407;-81
2023/11/19 00:44:23;;;;;;;34.00;4.38;;;;;;;6.85;100.00;97231.16;5043637;28;20893;-81
2023/11/19 00:46:49;;;;;;;5.77;2.70;;;;;;;6.86;100.00;97216.97;5042846;28;20437;-80
2023/11/19 00:49:15;;;;;;;10.90;3.10;;;;;;;6.88;100.00;97212.28;5041865;28;20416;-81
2023/11/19 00:51:41;;;;;;;4.73;2.67;;;;;;;6.90;100.00;97212.84;5043341;28;20403;-80
2023/11/19 00:54:08;;;;;;;3.83;2.45;;;;;;;6.91;100.00;97210.00;5044115;28;20426;-81
2023/11/19 00:56:35;;;;;;;4.40;2.78;;;;;;;6.94;100.00;97208.72;5044467;28;20395;-81
2023/11/19 00:59:01;;;;;;;3.13;2.13;;;;;;;6.95;100.00;97205.06;5044106;28;20496;-80
2023/11/19 01:01:28;;;;;;;11.90;2.60;;;;;;;6.96;100.00;97211.94;5044188;28;20493;-81
2023/11/19 01:03:54;;;;;;;3.03;1.90;;;;;;;6.99;100.00;97201.72;5048137;28;20399;-81
2023/11/19 01:06:28;;;;;;;2.92;1.90;;;;;;;7.00;100.00;97202.53;5044035;28;20931;-81
2023/11/19 01:08:54;;;;;;;6.70;2.00;;;;;;;7.02;100.00;97195.19;5047316;28;20421;-80
2023/11/19 01:11:21;;;;;;;3.13;1.95;;;;;;;7.05;100.00;97207.91;5043738;28;20876;-80
2023/11/19 01:13:49;;;;;;;2.90;1.73;;;;;;;7.09;100.00;97198.50;5044166;28;20413;-80
2023/11/19 01:16:16;;;;;;;3.03;1.63;;;;;;;7.11;100.00;97198.28;5043992;28;20887;-81
2023/11/19 01:18:42;;;;;;;3.95;1.83;;;;;;;7.14;100.00;97198.59;5044059;28;20435;-80
2023/11/19 01:21:08;;;;;;;2.53;1.45;;;;;;;7.15;100.00;97204.66;5042257;28;20407;-80
2023/11/19 01:23:34;;;;;;;2.35;1.60;;;;;;;7.17;100.00;97194.69;5042506;28;20426;-81
2023/11/19 01:26:00;;;;;;;2.03;1.50;;;;;;;7.21;100.00;97190.59;5043791;28;20419;-80
2023/11/19 01:28:27;;;;;;;3.50;1.50;;;;;;;7.21;100.00;97191.38;5043307;28;20458;-80
2023/11/19 01:30:54;;;;;;;2.95;1.30;;;;;;;7.24;100.00;97180.38;5043601;28;20462;-80
2023/11/19 01:33:21;;;;;;;1.92;1.33;;;;;;;7.27;100.00;97185.19;5043050;28;20395;-81
2023/11/19 01:35:47;;;;;;;2.20;1.10;;;;;;;7.33;100.00;97180.81;5043743;28;20406;-80
2023/11/19 01:38:14;;;;;;;1.38;1.20;;;;;;;7.35;100.00;97178.75;5042933;28;20403;-80
2023/11/19 01:40:40;;;;;;;2.33;1.35;;;;;;;7.34;100.00;97169.25;5042542;28;20454;-81
2023/11/19 01:43:06;;;;;;;1.57;1.27;;;;;;;7.37;100.00;97171.38;5043100;28;20410;-81
2023/11/19 01:45:34;;;;;;;1.60;1.30;;;;;;;7.38;100.00;97176.41;5042795;28;20391;-80
2023/11/19 01:48:06;;;;;;;1.65;1.27;;;;;;;7.39;100.00;97178.03;5042516;28;20400;-79
2023/11/19 01:50:34;;;;;;;1.02;1.00;;;;;;;7.44;100.00;97179.16;5042470;28;20395;-80
2023/11/19 01:53:00;;;;;;;2.80;1.17;;;;;;;7.43;100.00;97173.09;5040523;28;20502;-81
2023/11/19 01:55:28;;;;;;;2.13;1.00;;;;;;;7.45;100.00;97165.75;5038364;28;20395;-82
2023/11/19 01:57:59;;;;;;;3.03;1.30;;;;;;;7.48;100.00;97164.47;5038069;28;20395;-81
2023/11/19 02:00:25;;;;;;;2.97;1.20;;;;;;;7.50;100.00;97178.22;5040263;28;20454;-81
2023/11/19 02:02:54;;;;;;;2.88;1.17;;;;;;;7.50;100.00;97165.84;5039794;28;20399;-81
2023/11/19 02:05:23;;;;;;;3.28;1.15;;;;;;;7.53;100.00;97159.28;5040600;28;20399;-81
2023/11/19 02:07:50;;;;;;;1.50;1.17;;;;;;;7.59;100.00;97163.63;5041210;28;20906;-79
2023/11/19 02:10:19;;;;;;;1.80;1.13;;;;;;;7.61;100.00;97159.72;5040783;28;20791;-81
2023/11/19 02:12:46;;;;;;;1.37;1.20;;;;;;;7.64;100.00;97163.72;5040718;28;20479;-81
2023/11/19 02:15:12;;;;;;;1.00;1.00;;;;;;;7.64;100.00;97158.44;5041731;28;20414;-80
2023/11/19 02:17:38;;;;;;;1.08;0.98;;;;;;;7.64;100.00;97155.81;5040681;28;20490;-81
2023/11/19 02:20:11;;;;;;;1.00;1.00;;;;;;;7.64;100.00;97150.53;5040938;28;20411;-81
2023/11/19 02:22:39;;;;;;;1.30;1.20;;;;;;;7.65;100.00;97141.59;5040417;28;20399;-81
2023/11/19 02:25:10;;;;;;;2.70;1.30;;;;;;;7.65;100.00;97136.34;5041062;28;20471;-79
2023/11/19 02:27:48;;;;;;;2.33;1.30;;;;;;;7.64;100.00;97146.06;5040373;28;20482;-81
2023/11/19 02:30:14;;;;;;;1.85;1.13;;;;;;;7.65;100.00;97145.03;5040999;28;20414;-80
2023/11/19 02:32:41;;;;;;;1.08;1.08;;;;;;;7.67;100.00;97145.56;5040863;28;20402;-82
2023/11/19 02:35:08;;;;;;;2.03;1.10;;;;;;;7.70;100.00;97142.47;5041650;28;20392;-81
2023/11/19 02:37:34;;;;;;;1.15;1.08;;;;;;;7.71;100.00;97141.44;5042794;28;20412;-80
2023/11/19 02:40:02;;;;;;;2.60;1.00;;;;;;;7.72;100.00;97145.69;5043702;28;20449;-80
2023/11/19 02:42:29;;;;;;;0.95;0.95;;;;;;;7.74;100.00;97145.44;5040682;28;20403;-79
2023/11/19 02:44:56;;;;;;;0.95;0.95;;;;;;;7.75;100.00;97147.81;5040447;28;20820;-80
2023/11/19 02:47:23;;;;;;;1.97;1.00;;;;;;;7.76;100.00;97146.00;5040789;28;20395;-80
2023/11/19 02:49:50;;;;;;;18.70;1.60;;;;;;;7.77;100.00;97148.41;5040850;28;20402;-80
2023/11/19 02:52:18;;;;;;;2.17;1.00;;;;;;;7.80;100.00;97147.13;5041270;28;21774;-78
2023/11/19 02:54:45;;;;;;;1.27;0.93;;;;;;;7.83;100.00;97154.53;5040180;28;20395;-80
2023/11/19 02:57:12;;;;;;;0.93;0.90;;;;;;;7.85;100.00;97151.66;5041192;28;20391;-79
2023/11/19 02:59:41;;;;;;;1.40;1.00;;;;;;;7.86;100.00;97145.38;5040196;28;20454;-81
2023/11/19 03:02:11;;;;;;;1.98;1.08;;;;;;;7.87;100.00;97147.78;5041280;28;20395;-81
2023/11/19 03:04:42;;;;;;;1.10;0.85;;;;;;;7.88;100.00;97148.56;5039138;28;20891;-78
2023/11/19 03:07:09;;;;;;;4.57;1.00;;;;;;;7.89;100.00;97147.53;5037683;28;20437;-79
2023/11/19 03:09:35;;;;;;;1.90;0.90;;;;;;;7.90;100.00;97152.53;5039047;28;20403;-80
2023/11/19 03:12:01;;;;;;;1.40;0.82;;;;;;;7.91;100.00;97143.59;5038985;28;20454;-80
2023/11/19 03:14:27;;;;;;;0.80;0.80;;;;;;;7.93;100.00;97157.34;5042132;28;20399;-80
2023/11/19 03:16:53;;;;;;;1.90;1.00;;;;;;;7.96;100.00;97169.25;5041222;28;20395;-80
2023/11/19 03:19:21;;;;;;;1.20;1.00;;;;;;;7.96;100.00;97162.16;5040245;28;20442;-81
2023/11/19 03:21:48;;;;;;;1.00;1.00;;;;;;;8.00;100.00;97163.25;5040970;28;20387;-80
2023/11/19 03:24:15;;;;;;;1.80;0.82;;;;;;;8.02;100.00;97157.75;5045775;28;20413;-80
2023/11/19 03:26:42;;;;;;;1.38;1.10;;;;;;;8.02;100.00;97158.56;5040271;28;20401;-80
2023/11/19 03:29:09;;;;;;;1.00;0.80;;;;;;;8.05;100.00;97160.69;5039472;28;20395;-80
2023/11/19 03:31:35;;;;;;;1.02;1.02;;;;;;;8.07;100.00;97148.06;5039961;28;20820;-79
2023/11/19 03:34:01;;;;;;;6.27;1.60;;;;;;;8.14;100.00;97150.53;5039268;28;20423;-80
2023/11/19 03:36:33;;;;;;;1.38;1.10;;;;;;;8.14;100.00;97151.34;5038896;28;20405;-79
2023/11/19 03:38:59;;;;;;;4.72;1.30;;;;;;;8.16;100.00;97143.19;5038870;28;20453;-80
2023/11/19 03:41:26;;;;;;;1.40;1.10;;;;;;;8.18;100.00;97153.50;5038997;28;20405;-80
2023/11/19 03:43:52;;;;;;;1.30;1.00;;;;;;;8.18;100.00;97149.03;5039188;28;20435;-80
2023/11/19 03:46:19;;;;;;;4.10;1.02;;;;;;;8.17;100.00;97147.44;5041942;28;20890;-81
2023/11/19 03:48:46;;;;;;;0.90;0.90;;;;;;;8.19;100.00;97147.19;5042771;28;20403;-79
2023/11/19 03:51:15;;;;;;;1.40;1.00;;;;;;;8.20;100.00;97140.88;5042501;28;20415;-81
2023/11/19 03:53:42;;;;;;;1.00;0.90;;;;;;;8.27;100.00;97155.47;5043039;28;20398;-79
2023/11/19 03:56:09;;;;;;;2.05;1.50;;;;;;;8.28;100.00;97149.16;5043155;28;20752;-80
2023/11/19 03:58:36;;;;;;;1.13;1.02;;;;;;;8.26;100.00;97135.44;5042201;28;20399;-80
2023/11/19 04:01:02;;;;;;;0.90;0.90;;;;;;;8.27;100.00;97136.25;5042598;28;20441;-80
2023/11/19 04:03:28;;;;;;;0.95;0.95;;;;;;;8.26;100.00;97143.38;5043037;28;20395;-80
2023/11/19 04:05:54;;;;;;;1.10;0.90;;;;;;;8.27;100.00;97129.09;5043261;28;20733;-79
2023/11/19 04:08:20;;;;;;;1.10;1.00;;;;;;;8.31;100.00;97125.00;5043195;28;20395;-81
2023/11/19 04:10:48;;;;;;;0.90;0.90;;;;;;;8.32;100.00;97133.72;5042494;28;20913;-79
2023/11/19 04:13:14;;;;;;;1.33;0.85;;;;;;;8.31;100.00;97138.19;5042902;28;20403;-81
2023/11/19 04:15:40;;;;;;;1.38;0.85;;;;;;;8.30;100.00;97130.47;5043053;28;20864;-80
2023/11/19 04:18:07;;;;;;;1.20;1.00;;;;;;;8.29;100.00;97132.31;5042661;28;20441;-80
2023/11/19 04:20:33;;;;;;;0.80;0.80;;;;;;;8.31;100.00;97126.84;5043459;28;20422;-81
2023/11/19 04:23:00;;;;;;;1.23;1.00;;;;;;;8.31;100.00;97140.03;5044200;28;20395;-80
2023/11/19 04:25:27;;;;;;;1.50;0.90;;;;;;;8.31;100.00;97146.09;5048637;28;20413;-80
2023/11/19 04:27:54;;;;;;;1.20;1.00;;;;;;;8.34;100.00;97144.81;5045047;28;20505;-79
2023/11/19 04:30:21;;;;;;;1.00;1.00;;;;;;;8.35;100.00;97141.91;5044733;28;20395;-80
2023/11/19 04:32:48;;;;;;;0.93;0.90;;;;;;;8.36;100.00;97137.44;5045688;28;20406;-80
2023/11/19 04:35:15;;;;;;;0.93;0.90;;;;;;;8.36;100.00;97138.25;5045228;28;20892;-80
2023/11/19 04:37:42;;;;;;;1.10;1.00;;;;;;;8.38;100.00;97128.25;5045075;28;20395;-80
2023/11/19 04:40:09;;;;;;;0.80;0.80;;;;;;;8.38;100.00;97132.72;5045204;28;20419;-80
2023/11/19 04:42:35;;;;;;;1.00;0.93;;;;;;;8.39;100.00;97152.78;5050813;28;20426;-80
2023/11/19 04:45:06;;;;;;;1.17;1.00;;;;;;;8.43;100.00;97144.16;5049859;28;20406;-80
2023/11/19 04:47:32;;;;;;;1.10;1.00;;;;;;;8.44;100.00;97152.84;5045482;28;20741;-80
2023/11/19 04:49:58;;;;;;;0.90;0.90;;;;;;;8.47;100.00;97149.75;5044682;28;20406;-80
2023/11/19 04:52:25;;;;;;;1.02;0.90;;;;;;;8.47;100.00;97147.91;5044458;28;20395;-80
2023/11/19 04:54:51;;;;;;;0.80;0.80;;;;;;;8.49;100.00;97151.06;5044988;28;20429;-80
2023/11/19 04:57:17;;;;;;;1.00;1.00;;;;;;;8.50;100.00;97151.88;5044273;28;20463;-80
2023/11/19 04:59:43;;;;;;;2.00;1.20;;;;;;;8.49;100.00;97151.06;5044457;28;20433;-79
2023/11/19 05:02:11;;;;;;;17.90;1.50;;;;;;;8.56;100.00;97145.66;5045066;28;20394;-80
2023/11/19 05:04:42;;;;;;;1.23;0.85;;;;;;;8.59;100.00;97142.50;5044721;28;20415;-80
2023/11/19 05:07:08;;;;;;;1.30;0.90;;;;;;;8.62;100.00;97141.22;5044004;28;20732;-81
2023/11/19 05:09:34;;;;;;;0.70;0.70;;;;;;;8.62;100.00;97142.03;5041442;28;20893;-80
2023/11/19 05:12:01;;;;;;;1.87;1.10;;;;;;;8.62;100.00;97138.59;5056598;28;20421;-80
2023/11/19 05:14:27;;;;;;;4.05;1.00;;;;;;;8.65;100.00;97138.09;5050532;28;20395;-79
2023/11/19 05:16:54;;;;;;;3.55;0.93;;;;;;;8.67;100.00;97147.38;5054562;28;20386;-78
2023/11/19 05:19:21;;;;;;;2.60;0.90;;;;;;;8.69;100.00;97150.56;5048902;28;20446;-79
2023/11/19 05:21:47;;;;;;;1.77;0.80;;;;;;;8.71;100.00;97142.41;5054029;28;20390;-79
2023/11/19 05:24:13;;;;;;;1.00;0.98;;;;;;;8.77;100.00;97147.50;5054328;28;20408;-80
2023/11/19 05:26:40;;;;;;;2.07;0.80;;;;;;;8.78;100.00;97145.66;5050554;28;20397;-79
2023/11/19 05:29:06;;;;;;;0.88;0.88;;;;;;;8.77;100.00;97150.16;5046251;28;20403;-79
2023/11/19 05:31:32;;;;;;;1.50;0.80;;;;;;;8.75;100.00;97162.78;5046631;28;20407;-79
2023/11/19 05:33:58;;;;;;;0.80;0.80;;;;;;;8.79;100.00;97163.09;5037879;28;20410;-81
2023/11/19 05:36:28;;;;;;;0.82;0.80;;;;;;;8.80;100.00;97160.19;5051942;28;20385;-80
2023/11/19 05:38:55;;;;;;;1.48;0.82;;;;;;;8.84;100.00;97155.25;5040575;28;20413;-81
2023/11/19 05:41:21;;;;;;;1.05;0.80;;;;;;;8.85;100.00;97162.91;5053088;28;20402;-80
2023/11/19 05:43:47;;;;;;;1.70;0.90;;;;;;;8.87;100.00;97160.81;5056977;28;20407;-79
2023/11/19 05:46:13;;;;;;;0.80;0.80;;;;;;;8.87;100.00;97163.44;5043542;28;20457;-80
2023/11/19 05:48:39;;;;;;;0.80;0.80;;;;;;;8.89;100.00;97164.00;5040917;28;20410;-79
2023/11/19 05:51:06;;;;;;;0.85;0.80;;;;;;;8.90;100.00;97154.25;5035110;28;20529;-80
2023/11/19 05:53:34;;;;;;;2.30;0.90;;;;;;;8.90;100.00;97152.41;5031456;28;20498;-80
2023/11/19 05:56:03;;;;;;;2.03;0.90;;;;;;;8.95;100.00;97148.25;5037362;28;20479;-81
2023/11/19 05:58:30;;;;;;;1.00;0.90;;;;;;;8.98;100.00;97153.81;5050326;28;20422;-80
2023/11/19 06:00:56;;;;;;;1.60;0.80;;;;;;;8.96;100.00;97141.91;5039541;28;20434;-79
2023/11/19 06:03:23;;;;;;;2.00;0.90;;;;;;;8.98;100.00;97142.47;5038850;28;20395;-80
2023/11/19 06:05:49;;;;;;;2.25;1.05;;;;;;;8.95;100.00;97146.38;5042285;28;20433;-79
2023/11/19 06:08:16;;;;;;;0.95;0.80;;;;;;;8.95;100.00;97149.03;5040750;28;21051;-81
2023/11/19 06:10:46;;;;;;;0.90;0.90;;;;;;;8.95;100.00;97142.97;5038499;28;20438;-79
2023/11/19 06:13:14;;;;;;;1.10;1.00;;;;;;;8.93;100.00;97157.22;5058756;28;20762;-79
2023/11/19 06:15:41;;;;;;;1.05;1.02;;;;;;;8.91;100.00;97156.66;5041257;28;20396;-80
2023/11/19 06:18:08;;;;;;;0.90;0.90;;;;;;;8.91;100.00;97153.22;5039812;28;20418;-79
2023/11/19 06:20:34;;;;;;;0.90;0.90;;;;;;;8.95;100.00;97145.63;5039797;28;20465;-80
2023/11/19 06:23:00;;;;;;;0.90;0.90;;;;;;;8.96;100.00;97155.91;5044690;28;20401;-79
2023/11/19 06:25:27;;;;;;;0.90;0.90;;;;;;;8.96;100.00;97160.38;5039800;28;20779;-82
2023/11/19 06:27:56;;;;;;;0.90;0.90;;;;;;;8.97;100.00;97161.97;5042442;28;20410;-80
2023/11/19 06:30:22;;;;;;;0.80;0.80;;;;;;;8.96;100.00;97166.47;5044938;28;20433;-80
2023/11/19 06:32:49;;;;;;;2.50;0.82;;;;;;;8.96;100.00;97169.09;5041996;28;20951;-81
2023/11/19 06:35:15;;;;;;;0.70;0.70;;;;;;;8.98;100.00;97169.66;5042404;28;20411;-81
2023/11/19 06:37:41;;;;;;;2.30;0.90;;;;;;;8.98;100.00;97172.31;5048264;28;20421;-81
2023/11/19 06:40:09;;;;;;;1.08;0.98;;;;;;;9.00;100.00;97179.97;5045816;28;20413;-81
2023/11/19 06:42:35;;;;;;;0.80;0.80;;;;;;;9.01;100.00;97185.03;5045919;28;20402;-83
2023/11/19 06:45:03;;;;;;;1.00;0.90;;;;;;;9.07;100.00;97186.69;5040258;28;20424;-82
2023/11/19 06:47:29;;;;;;;1.60;0.90;;;;;;;9.08;100.00;97179.56;5032880;28;20910;-80
2023/11/19 06:49:56;;;;;;;0.98;0.98;;;;;;;9.08;100.00;97187.47;5035120;28;20422;-80
2023/11/19 06:52:22;;;;;;;0.90;0.90;;;;;;;9.05;100.00;97180.03;5034538;28;20407;-81
2023/11/19 06:54:48;;;;;;;1.08;1.00;;;;;;;9.05;100.00;97188.75;5032535;28;20391;-80
2023/11/19 06:57:14;;;;;;;1.35;0.90;;;;;;;9.06;100.00;97184.28;5031193;28;20450;-78
2023/11/19 06:59:40;;;;;;;2.30;0.90;;;;;;;9.08;100.00;97193.56;5033311;28;20505;-80
2023/11/19 07:02:08;;;;;;;1.92;0.90;;;;;;;9.08;100.00;97190.91;5032173;28;20410;-82
2023/11/19 07:04:35;;;;;;;1.10;0.95;;;;;;;9.08;100.00;97193.56;5035889;28;20482;-80
2023/11/19 07:07:01;;;;;;;1.00;1.00;;;;;;;9.08;100.00;97193.56;5035909;28;20457;-80
2023/11/19 07:09:27;;;;;;;1.00;0.90;;;;;;;9.08;100.00;97190.91;5035002;28;20403;-85
2023/11/19 07:11:53;;;;;;;1.02;0.95;;;;;;;9.08;100.00;97185.63;5045805;28;20490;-84
2023/11/19 07:14:20;;;;;;;1.73;1.02;;;;;;;9.07;100.00;97178.75;5046483;28;20526;-85
2023/11/19 07:16:46;;;;;;;1.10;0.85;;;;;;;9.09;100.00;97183.81;5048642;28;20421;-87
2023/11/19 07:19:15;;;;;;;0.80;0.80;;;;;;;9.10;100.00;97180.88;5049560;28;20418;-86
2023/11/19 07:21:43;;;;;;;1.90;1.05;;;;;;;9.11;100.00;97179.84;5052892;28;20391;-85
2023/11/19 07:24:10;;;;;;;2.77;1.10;;;;;;;9.13;100.00;97184.88;5052107;28;20409;-80
2023/11/19 07:26:40;;;;;;;0.80;0.80;;;;;;;9.16;100.00;97172.00;5046095;28;20399;-80
2023/11/19 07:29:07;;;;;;;1.53;1.10;;;;;;;9.18;100.00;97182.28;5038961;28;20917;-80
2023/11/19 07:31:33;;;;;;;0.98;0.90;;;;;;;9.18;100.00;97188.38;5037945;28;20403;-79
2023/11/19 07:33:59;;;;;;;2.37;0.83;;;;;;;9.20;100.00;97198.69;5040847;28;20411;-80
2023/11/19 07:36:27;;;;;;;3.90;1.00;;;;;;;9.21;100.00;97201.09;5035037;28;20925;-79
2023/11/19 07:38:53;;;;;;;2.25;1.00;;;;;;;9.23;100.00;97209.59;5038734;28;20399;-82
2023/11/19 07:41:19;;;;;;;2.63;1.00;;;;;;;9.22;100.00;97217.75;5037648;28;20401;-79
2023/11/19 07:43:46;;;;;;;0.90;0.90;;;;;;;9.25;100.00;97223.31;5038055;28;20427;-81
2023/11/19 07:46:13;;;;;;;0.80;0.80;;;;;;;9.26;100.00;97217.00;5040178;28;20407;-79
2023/11/19 07:48:39;;;;;;;0.90;0.90;;;;;;;9.26;100.00;97217.00;5038801;28;20397;-81
2023/11/19 07:51:06;;;;;;;0.90;0.90;;;;;;;9.30;100.00;97212.03;5040143;28;20491;-81
2023/11/19 07:53:33;;;;;;;0.90;0.90;;;;;;;9.33;100.00;97219.44;5037490;28;20438;-80
2023/11/19 07:55:59;;;;;;;0.85;0.85;;;;;;;9.34;100.00;97226.34;5038167;28;20395;-82
2023/11/19 07:58:26;;;;;;;2.50;0.90;;;;;;;9.33;100.00;97225.53;5039528;28;20531;-81
2023/11/19 08:00:52;;;;;;;1.50;0.90;;;;;;;9.35;100.00;97229.78;5042971;28;20426;-81
2023/11/19 08:03:24;;;;;;;1.35;0.80;;;;;;;9.38;100.00;97222.16;5039570;28;20449;-81
2023/11/19 08:05:50;;;;;;;0.98;0.80;;;;;;;9.41;100.00;97212.94;5051398;28;20399;-80
2023/11/19 08:08:16;;;;;;;1.10;0.90;;;;;;;9.44;100.00;97215.09;5044792;28;20472;-81
2023/11/19 08:10:44;;;;;;;1.17;0.82;;;;;;;9.48;100.00;97224.09;5050704;28;20506;-81
2023/11/19 08:13:10;;;;;;;0.80;0.80;;;;;;;9.51;100.00;97213.84;5039723;28;20410;-80
2023/11/19 08:15:36;;;;;;;1.00;0.80;;;;;;;9.53;100.00;97213.63;5037978;28;20445;-80
2023/11/19 08:18:03;;;;;;;1.60;0.95;;;;;;;9.59;100.00;97209.97;5038885;28;20395;-80
2023/11/19 08:20:29;;;;;;;1.30;0.90;;;;;;;9.64;100.00;97205.53;5040609;28;20419;-81
2023/11/19 08:22:55;;;;;;;3.03;0.82;;;;;;;9.70;100.00;97201.88;5036869;28;20410;-80
2023/11/19 08:25:21;;;;;;;0.90;0.90;;;;;;;9.79;100.00;97215.44;5036328;28;20438;-79
2023/11/19 08:27:49;;;;;;;0.80;0.80;;;;;;;9.85;100.00;97221.59;5035207;28;20415;-83
2023/11/19 08:30:15;;;;;;;0.70;0.70;;;;;;;9.93;100.00;97223.78;5035119;28;20411;-81
2023/11/19 08:32:41;;;;;;;2.00;0.90;;;;;;;10.04;100.00;97225.47;5037197;28;20406;-81
2023/11/19 08:35:08;;;;;;;0.70;0.70;;;;;;;10.20;100.00;97221.94;5034023;28;20429;-81
2023/11/19 08:37:36;;;;;;;1.00;0.90;;;;;;;10.28;100.00;97210.09;5037897;28;20883;-81
2023/11/19 08:40:04;;;;;;;0.93;0.80;;;;;;;10.38;100.00;97226.03;5032460;28;20418;-81
2023/11/19 08:42:30;;;;;;;1.25;0.93;;;;;;;10.42;100.00;97229.78;5038068;28;20407;-80
2023/11/19 08:44:58;;;;;;;1.15;0.80;;;;;;;10.49;100.00;97238.31;5038309;28;20766;-81
2023/11/19 08:47:24;;;;;;;3.78;0.90;;;;;;;10.41;100.00;97226.34;5037514;28;20497;-81
2023/11/19 08:49:52;;;;;;;2.30;1.00;;;;;;;10.37;100.00;97233.19;5039142;28;20756;-80
2023/11/19 08:52:18;;;;;;;1.17;0.98;;;;;;;10.34;100.00;97232.91;5040252;28;20435;-82
2023/11/19 08:54:44;;;;;;;1.02;0.90;;;;;;;10.30;100.00;97237.09;5039561;28;20403;-80
2023/11/19 08:57:10;;;;;;;1.17;0.95;;;;;;;10.27;100.00;97237.59;5045678;28;20449;-81
2023/11/19 08:59:39;;;;;;;1.08;1.00;;;;;;;10.30;100.00;97245.03;5056394;28;20493;-82
2023/11/19 09:02:08;;;;;;;0.95;0.95;;;;;;;10.36;100.00;97230.81;5046067;28;20422;-80
2023/11/19 09:04:34;;;;;;;4.90;1.00;;;;;;;10.42;100.00;97232.44;5038041;28;20415;-78
2023/11/19 09:07:00;;;;;;;1.50;0.93;;;;;;;10.63;100.00;97230.72;5036163;28;20406;-80
2023/11/19 09:09:26;;;;;;;3.10;1.00;;;;;;;10.78;100.00;97236.91;5038514;28;20405;-80
2023/11/19 09:11:53;;;;;;;1.23;0.80;;;;;;;11.02;100.00;97239.97;5038507;28;20410;-79
2023/11/19 09:14:22;;;;;;;2.72;1.10;;;;;;;11.11;100.00;97234.97;5038497;28;20487;-80
2023/11/19 09:16:48;;;;;;;4.20;0.85;;;;;;;11.08;100.00;97230.97;5038269;28;20399;-79
2023/11/19 09:19:17;;;;;;;1.10;0.90;;;;;;;10.94;100.00;97229.84;5039420;28;20391;-79
2023/11/19 09:21:43;;;;;;;0.75;0.70;;;;;;;10.82;100.00;97238.00;5039087;28;20410;-81
2023/11/19 09:24:09;;;;;;;1.40;0.90;;;;;;;10.76;100.00;97243.50;5041205;28;20819;-82
2023/11/19 09:26:36;;;;;;;1.35;0.90;;;;;;;10.78;100.00;97247.50;5042331;28;20403;-81
2023/11/19 09:29:02;;;;;;;1.00;0.90;;;;;;;10.79;100.00;97251.75;5036026;28;20430;-80
2023/11/19 09:31:28;;;;;;;0.93;0.90;;;;;;;10.90;100.00;97251.81;5036917;28;20493;-81
2023/11/19 09:33:54;;;;;;;0.95;0.80;;;;;;;11.58;100.00;97258.75;5036810;28;20400;-80
2023/11/19 09:36:22;;;;;;;0.77;0.77;;;;;;;12.34;100.00;97243.78;5038015;28;20403;-80
2023/11/19 09:38:48;;;;;;;0.70;0.70;;;;;;;12.56;100.00;97243.50;5039280;28;20395;-81
2023/11/19 09:41:15;;;;;;;0.80;0.70;;;;;;;12.59;100.00;97243.00;5035678;28;20495;-80
2023/11/19 09:43:42;;;;;;;0.80;0.70;;;;;;;12.52;100.00;97249.63;5034013;28;20411;-81
2023/11/19 09:46:13;;;;;;;0.70;0.70;;;;;;;12.83;100.00;97226.50;5035547;28;20988;-81
2023/11/19 09:48:42;;;;;;;0.60;0.60;;;;;;;13.37;100.00;97242.59;5038124;28;20414;-81
2023/11/19 09:51:09;;;;;;;0.70;0.70;;;;;;;13.56;100.00;97243.56;5039511;28;20464;-82
2023/11/19 09:53:38;;;;;;;1.10;0.60;;;;;;;13.96;100.00;97237.22;5039512;28;20951;-81
2023/11/19 09:56:05;;;;;;;1.67;0.73;;;;;;;14.00;100.00;97242.78;5037183;28;20482;-82
2023/11/19 09:58:31;;;;;;;1.95;0.90;;;;;;;13.85;100.00;97246.31;5037245;28;20434;-80
2023/11/19 10:01:02;;;;;;;2.80;0.80;;;;;;;13.98;100.00;97242.28;5037040;28;20414;-81
2023/11/19 10:03:35;;;;;;;0.60;0.60;;;;;;;14.04;100.00;97239.31;5037183;28;20407;-81
2023/11/19 10:06:02;;;;;;;1.57;0.60;;;;;;;14.28;100.00;97237.50;5038049;28;20427;-82
2023/11/19 10:08:29;;;;;;;2.30;0.70;;;;;;;14.24;100.00;97233.03;5038101;28;20445;-81
2023/11/19 10:10:56;;;;;;;0.60;0.60;;;;;;;14.10;100.00;97234.72;5038356;28;20395;-81
2023/11/19 10:13:27;;;;;;;0.57;0.57;;;;;;;13.88;100.00;97227.16;5038218;28;20453;-80
2023/11/19 10:15:55;;;;;;;0.70;0.70;;;;;;;13.65;100.00;97230.47;5039397;28;20415;-81
2023/11/19 10:18:25;;;;;;;2.20;0.80;;;;;;;13.75;100.00;97227.78;5039078;28;20453;-81
2023/11/19 10:20:52;;;;;;;0.70;0.65;;;;;;;14.59;100.00;97227.44;5037080;28;20467;-83
2023/11/19 10:23:18;;;;;;;0.80;0.80;;;;;;;15.36;100.00;97240.78;5036486;28;20942;-82
2023/11/19 10:25:44;;;;;;;1.40;0.77;;;;;;;16.26;100.00;97240.63;5037285;28;20407;-82
2023/11/19 10:28:14;;;;;;;1.73;0.70;;;;;;;16.73;100.00;97226.28;5037285;28;20580;-81
2023/11/19 10:30:42;;;;;;;1.37;0.70;;;;;;;16.42;100.00;97203.78;5044446;28;20430;-81
2023/11/19 10:33:10;;;;;;;1.35;0.70;;;;;;;15.94;100.00;97196.00;5039989;28;20462;-82
2023/11/19 10:35:50;;;;;;;0.65;0.60;;;;;;;15.47;100.00;97215.56;5036829;28;20482;-80
2023/11/19 10:38:16;;;;;;;0.60;0.60;;;;;;;15.39;100.00;97209.00;5038007;28;20448;-80
2023/11/19 10:40:42;;;;;;;0.50;0.50;;;;;;;15.41;100.00;97217.50;5042607;28;20415;-80
2023/11/19 10:43:09;;;;;;;4.25;0.65;;;;;;;15.92;100.00;97216.88;5044133;28;20527;-81
2023/11/19 10:45:37;;;;;;;1.20;0.60;;;;;;;16.03;100.00;97215.63;5046090;28;20410;-80
2023/11/19 10:48:08;;;;;;;1.13;0.50;;;;;;;15.72;100.00;97209.13;5040811;28;20990;-79
2023/11/19 10:50:35;;;;;;;0.77;0.68;;;;;;;15.78;100.00;97210.66;5046651;28;20417;-82
2023/11/19 10:53:03;;;;;;;0.98;0.50;;;;;;;16.07;100.00;97216.63;5042075;28;20413;-84
2023/11/19 10:55:30;;;;;;;0.60;0.60;;;;;;;16.16;100.00;97220.22;5039460;28;20399;-79
2023/11/19 10:58:01;;;;;;;1.27;0.68;;;;;;;16.04;100.00;97203.84;5039009;28;20914;-81
2023/11/19 11:00:31;;;;;;;0.77;0.60;;;;;;;15.76;100.00;97204.81;5037282;28;20423;-82
2023/11/19 11:03:02;;;;;;;2.33;0.60;;;;;;;15.50;100.00;97201.66;5038152;28;20391;-80
2023/11/19 11:05:32;;;;;;;1.85;0.70;;;;;;;15.30;100.00;97196.56;5037456;28;20418;-82
2023/11/19 11:08:00;;;;;;;1.08;0.60;;;;;;;15.09;100.00;97212.03;5037047;28;20391;-81
2023/11/19 11:10:28;;;;;;;1.00;0.90;;;;;;;14.71;100.00;97214.56;5036523;28;20407;-81
2023/11/19 11:12:58;;;;;;;0.80;0.80;;;;;;;14.39;100.00;97224.16;5038447;28;20401;-80
2023/11/19 11:15:28;;;;;;;1.67;0.70;;;;;;;14.03;100.00;97213.75;5035481;28;20403;-79
2023/11/19 11:17:58;;;;;;;1.50;0.70;;;;;;;13.83;100.00;97214.66;5037441;28;20419;-80
2023/11/19 11:20:27;;;;;;;0.60;0.60;;;;;;;13.69;100.00;97229.66;5037389;28;20429;-81
2023/11/19 11:23:07;;;;;;;3.47;0.90;;;;;;;13.55;100.00;97239.31;5035314;28;20929;-82
2023/11/19 11:25:47;;;;;;;2.90;0.90;;;;;;;13.40;100.00;97228.72;5035153;28;20494;-81
2023/11/19 11:28:27;;;;;;;1.40;1.00;;;;;;;13.32;100.00;97221.31;5036699;28;20941;-83
2023/11/19 11:31:09;;;;;;;2.70;0.90;;;;;;;13.21;100.00;97219.78;5036490;28;20410;-82